ADDS METAR Data INFO
IDs: Format: Raw Decoded Include TAF

Data at: 0251 UTC 21 Jan 2018

KVCV 210247Z 24010G24KT 10SM SKC 04/M05 A3009
KVCV 210147Z 25015G21KT 10SM SKC 05/M06 A3007
KVCV 210050Z 26015G25KT 10SM SKC 07/M06 A3005
KVCV 202350Z 27015G25KT 10SM SKC 08/M06 A3004
KVCV 202255Z 27015G25KT 10SM SKC 09/M07 A3001
KVCV 202146Z 27018G28KT 10SM SKC 09/M07 A2999
KVCV 202046Z 25014G22KT 10SM SKC 09/M07 A3000
KVCV 201946Z 25017G32KT 10SM SKC 08/M04 A3000
KVCV 201846Z 27017G29KT 10SM OVC090 07/M04 A3003
KVCV 201746Z 25017KT 10SM BKN090 06/M04 A3002
KVCV 201649Z 25015KT 10SM BKN070 04/M03 A3000
KVCV 201552Z 25013KT 10SM BKN070 04/M04 A2997
KVCV 201446Z 25010KT 10SM SKC 03/M04 A2994
KVCV 201353Z 23010KT 10SM SKC 03/M04 A2993
KVCV 201315Z AUTO 24010KT 10SM CLR 02/M03 A2993 RMK AO2
KVCV 201255Z AUTO 26010KT 10SM CLR 02/M03 A2993 RMK AO2
KVCV 201235Z AUTO 25013G16KT 10SM SCT065 02/M02 A2993 RMK AO2
KVCV 201215Z AUTO 25011KT 10SM SCT065 03/M02 A2993 RMK AO2
KVCV 201155Z AUTO 25010G14KT 10SM BKN065 03/M01 A2992 RMK AO2
KVCV 201135Z AUTO 28010G16KT 10SM BKN065 04/M02 A2992 RMK AO2
KVCV 201115Z AUTO 28012G20KT 10SM OVC065 04/M02 A2991 RMK AO2
KVCV 201055Z AUTO 29011KT 10SM OVC065 04/M02 A2991 RMK AO2
KVCV 201035Z AUTO 27011KT 10SM OVC065 04/M02 A2991 RMK AO2
KVCV 201015Z AUTO 27012G17KT 10SM SCT065 04/M02 A2991 RMK AO2
KVCV 200955Z AUTO 25010KT 10SM SCT050 04/M03 A2991 RMK AO2
KVCV 200935Z AUTO 24013KT 10SM OVC050 04/M03 A2991 RMK AO2
KVCV 200915Z AUTO 24012KT 10SM OVC048 04/M02 A2991 RMK AO2
KVCV 200855Z AUTO 00000KT 10SM BKN048 04/M02 A2991 RMK AO2
KVCV 200835Z AUTO 00000KT 10SM SCT050 03/M02 A2991 RMK AO2
KVCV 200815Z AUTO 25008KT 10SM SCT050 04/M02 A2991 RMK AO2
KVCV 200755Z AUTO 26008G15KT 10SM CLR 04/M02 A2991 RMK AO2
KVCV 200735Z AUTO 26010KT 10SM CLR 04/M01 A2990 RMK AO2
KVCV 200715Z AUTO 00000KT 10SM CLR 05/M01 A2990 RMK AO2
KVCV 200655Z AUTO 00000KT 10SM CLR 05/M01 A2990 RMK AO2
KVCV 200635Z AUTO 27009KT 10SM SCT040 SCT065 SCT070 05/00 A2991 RMK AO2
KVCV 200615Z AUTO 28011KT 10SM BKN040 BKN065 OVC070 05/01 A2991 RMK AO2
KVCV 200555Z AUTO 27013G19KT 10SM SCT033 BKN040 OVC065 06/01 A2991 RMK AO2
KVCV 200535Z AUTO 27014KT 10SM OVC035 06/01 A2991 RMK AO2
KVCV 200515Z AUTO 27004KT 10SM OVC035 07/00 A2991 RMK AO2
KVCV 200455Z AUTO 28010KT 10SM OVC035 07/01 A2990 RMK AO2
KVCV 200435Z AUTO 00000KT 10SM BKN033 OVC041 07/00 A2990 RMK AO2
KVCV 200415Z AUTO 00000KT 10SM BKN033 OVC041 07/01 A2989 RMK AO2
KVCV 192350Z 26008KT 10SM SCT100 13/06 A2987
KVCV 192255Z 25010KT 10SM SCT100 14/06 A2988
KVCV 192146Z 25006KT 10SM SCT100 16/04 A2989
KVCV 192046Z 25006KT 10SM SKC 17/02 A2992
KVCV 191950Z 00000KT 10SM SKC 16/02 A2995
KVCV 191846Z 00000KT 10SM SKC 14/02 A2999
KVCV 191743Z 27004KT 10SM SKC 11/03 A3001
KVCV 191656Z 27006KT 10SM SKC 09/03 A3000
KVCV 191553Z 24006KT 10SM SKC 08/02 A2999
KVCV 191452Z 00000KT 10SM SKC 07/01 A2999